sensor_id;sensor_type;location;lat;lon;timestamp;temperature;humidity
15103;DHT22;7652;53.584;9.998;2022-09-24T00:02:53;14.30;99.90
15103;DHT22;7652;53.584;9.998;2022-09-24T00:06:00;14.30;99.90
15103;DHT22;7652;53.584;9.998;2022-09-24T00:09:04;14.40;99.90
15103;DHT22;7652;53.584;9.998;2022-09-24T00:12:08;14.40;99.90
15103;DHT22;7652;53.584;9.998;2022-09-24T00:15:14;14.40;99.90
15103;DHT22;7652;53.584;9.998;2022-09-24T00:18:17;14.30;99.90
15103;DHT22;7652;53.584;9.998;2022-09-24T00:21:24;14.30;99.90
15103;DHT22;7652;53.584;9.998;2022-09-24T00:24:27;14.30;99.90
15103;DHT22;7652;53.584;9.998;2022-09-24T00:27:49;14.30;99.90
15103;DHT22;7652;53.584;9.998;2022-09-24T00:30:52;14.30;99.90
15103;DHT22;7652;53.584;9.998;2022-09-24T00:33:58;14.30;99.90
15103;DHT22;7652;53.584;9.998;2022-09-24T00:37:01;14.30;99.90
15103;DHT22;7652;53.584;9.998;2022-09-24T00:40:06;14.30;99.90
15103;DHT22;7652;53.584;9.998;2022-09-24T00:43:24;14.30;99.90
15103;DHT22;7652;53.584;9.998;2022-09-24T00:46:30;14.30;99.90
15103;DHT22;7652;53.584;9.998;2022-09-24T00:49:34;14.30;99.90
15103;DHT22;7652;53.584;9.998;2022-09-24T00:52:41;14.20;99.90
15103;DHT22;7652;53.584;9.998;2022-09-24T00:55:48;14.00;99.90
15103;DHT22;7652;53.584;9.998;2022-09-24T00:58:55;14.00;99.90
15103;DHT22;7652;53.584;9.998;2022-09-24T01:01:58;14.00;99.90
15103;DHT22;7652;53.584;9.998;2022-09-24T01:05:03;14.10;99.90
15103;DHT22;7652;53.584;9.998;2022-09-24T01:08:10;14.10;99.90
15103;DHT22;7652;53.584;9.998;2022-09-24T01:11:25;14.10;99.90
15103;DHT22;7652;53.584;9.998;2022-09-24T01:14:55;14.10;99.90
15103;DHT22;7652;53.584;9.998;2022-09-24T01:18:04;14.20;99.90
15103;DHT22;7652;53.584;9.998;2022-09-24T01:21:21;14.20;99.90
15103;DHT22;7652;53.584;9.998;2022-09-24T01:24:42;14.20;99.90
15103;DHT22;7652;53.584;9.998;2022-09-24T01:28:00;14.20;99.90
15103;DHT22;7652;53.584;9.998;2022-09-24T01:31:12;14.20;99.90
15103;DHT22;7652;53.584;9.998;2022-09-24T01:34:21;14.20;99.90
15103;DHT22;7652;53.584;9.998;2022-09-24T01:37:30;14.20;99.90
15103;DHT22;7652;53.584;9.998;2022-09-24T01:40:35;14.20;99.90
15103;DHT22;7652;53.584;9.998;2022-09-24T01:43:40;14.20;99.90
15103;DHT22;7652;53.584;9.998;2022-09-24T01:46:45;14.20;99.90
15103;DHT22;7652;53.584;9.998;2022-09-24T01:49:48;14.20;99.90
15103;DHT22;7652;53.584;9.998;2022-09-24T01:52:57;14.20;99.90
15103;DHT22;7652;53.584;9.998;2022-09-24T01:56:06;14.20;99.90
15103;DHT22;7652;53.584;9.998;2022-09-24T01:59:13;14.20;99.90
15103;DHT22;7652;53.584;9.998;2022-09-24T02:02:23;14.20;99.90
15103;DHT22;7652;53.584;9.998;2022-09-24T02:05:31;14.20;99.90
15103;DHT22;7652;53.584;9.998;2022-09-24T02:08:38;14.20;99.90
15103;DHT22;7652;53.584;9.998;2022-09-24T02:11:51;14.20;99.90
15103;DHT22;7652;53.584;9.998;2022-09-24T02:14:58;14.10;99.90
15103;DHT22;7652;53.584;9.998;2022-09-24T02:18:10;14.10;99.90
15103;DHT22;7652;53.584;9.998;2022-09-24T02:21:17;14.10;99.90
15103;DHT22;7652;53.584;9.998;2022-09-24T02:24:25;14.10;99.90
15103;DHT22;7652;53.584;9.998;2022-09-24T02:27:32;14.00;99.90
15103;DHT22;7652;53.584;9.998;2022-09-24T02:30:39;14.00;99.90
15103;DHT22;7652;53.584;9.998;2022-09-24T02:33:47;14.00;99.90
15103;DHT22;7652;53.584;9.998;2022-09-24T02:37:12;14.00;99.90
15103;DHT22;7652;53.584;9.998;2022-09-24T02:40:15;13.90;99.90
15103;DHT22;7652;53.584;9.998;2022-09-24T02:43:18;13.90;99.90
15103;DHT22;7652;53.584;9.998;2022-09-24T02:46:21;13.90;99.90
15103;DHT22;7652;53.584;9.998;2022-09-24T02:49:26;14.00;99.90
15103;DHT22;7652;53.584;9.998;2022-09-24T02:52:29;14.00;99.90
15103;DHT22;7652;53.584;9.998;2022-09-24T02:55:32;14.00;99.90
15103;DHT22;7652;53.584;9.998;2022-09-24T02:58:35;14.00;99.90
15103;DHT22;7652;53.584;9.998;2022-09-24T03:01:39;14.10;99.90
15103;DHT22;7652;53.584;9.998;2022-09-24T03:04:43;14.10;99.90
15103;DHT22;7652;53.584;9.998;2022-09-24T03:07:47;14.00;99.90
15103;DHT22;7652;53.584;9.998;2022-09-24T03:10:50;13.90;99.90
15103;DHT22;7652;53.584;9.998;2022-09-24T03:13:56;13.90;99.90
15103;DHT22;7652;53.584;9.998;2022-09-24T03:17:00;13.90;99.90
15103;DHT22;7652;53.584;9.998;2022-09-24T03:20:05;13.90;99.90
15103;DHT22;7652;53.584;9.998;2022-09-24T03:23:08;13.90;99.90
15103;DHT22;7652;53.584;9.998;2022-09-24T03:26:12;13.90;99.90
15103;DHT22;7652;53.584;9.998;2022-09-24T03:29:15;14.00;99.90
15103;DHT22;7652;53.584;9.998;2022-09-24T03:32:18;14.00;99.90
15103;DHT22;7652;53.584;9.998;2022-09-24T03:35:21;13.90;99.90
15103;DHT22;7652;53.584;9.998;2022-09-24T03:38:24;13.90;99.90
15103;DHT22;7652;53.584;9.998;2022-09-24T03:41:27;14.00;99.90
15103;DHT22;7652;53.584;9.998;2022-09-24T03:44:30;13.90;99.90
15103;DHT22;7652;53.584;9.998;2022-09-24T03:47:33;13.80;99.90
15103;DHT22;7652;53.584;9.998;2022-09-24T03:50:38;13.80;99.90
15103;DHT22;7652;53.584;9.998;2022-09-24T03:53:41;13.80;99.90
15103;DHT22;7652;53.584;9.998;2022-09-24T03:56:44;13.80;99.90
15103;DHT22;7652;53.584;9.998;2022-09-24T03:59:47;13.90;99.90
15103;DHT22;7652;53.584;9.998;2022-09-24T04:02:50;13.90;99.90
15103;DHT22;7652;53.584;9.998;2022-09-24T04:05:54;13.90;99.90
15103;DHT22;7652;53.584;9.998;2022-09-24T04:08:57;13.90;99.90
15103;DHT22;7652;53.584;9.998;2022-09-24T04:12:01;13.80;99.90
15103;DHT22;7652;53.584;9.998;2022-09-24T04:15:04;13.70;99.90
15103;DHT22;7652;53.584;9.998;2022-09-24T04:18:08;13.70;99.90
15103;DHT22;7652;53.584;9.998;2022-09-24T04:21:12;13.80;99.90
15103;DHT22;7652;53.584;9.998;2022-09-24T04:24:15;13.80;99.90
15103;DHT22;7652;53.584;9.998;2022-09-24T04:27:18;13.70;99.90
15103;DHT22;7652;53.584;9.998;2022-09-24T04:30:23;13.80;99.90
15103;DHT22;7652;53.584;9.998;2022-09-24T04:33:26;13.80;99.90
15103;DHT22;7652;53.584;9.998;2022-09-24T04:36:31;13.70;99.90
15103;DHT22;7652;53.584;9.998;2022-09-24T04:39:34;13.70;99.90
15103;DHT22;7652;53.584;9.998;2022-09-24T04:42:37;13.80;99.90
15103;DHT22;7652;53.584;9.998;2022-09-24T04:45:40;13.80;99.90
15103;DHT22;7652;53.584;9.998;2022-09-24T04:48:44;13.80;99.90
15103;DHT22;7652;53.584;9.998;2022-09-24T04:51:49;13.80;99.90
15103;DHT22;7652;53.584;9.998;2022-09-24T04:54:52;13.80;99.90
15103;DHT22;7652;53.584;9.998;2022-09-24T04:57:55;13.80;99.90
15103;DHT22;7652;53.584;9.998;2022-09-24T05:01:00;13.80;99.90
15103;DHT22;7652;53.584;9.998;2022-09-24T05:04:04;13.80;99.90
15103;DHT22;7652;53.584;9.998;2022-09-24T05:07:09;13.60;99.90
15103;DHT22;7652;53.584;9.998;2022-09-24T05:10:12;13.60;99.90
15103;DHT22;7652;53.584;9.998;2022-09-24T05:13:15;13.70;99.90
15103;DHT22;7652;53.584;9.998;2022-09-24T05:16:18;13.60;99.90
15103;DHT22;7652;53.584;9.998;2022-09-24T05:19:21;13.50;99.90
15103;DHT22;7652;53.584;9.998;2022-09-24T05:22:25;13.50;99.90
15103;DHT22;7652;53.584;9.998;2022-09-24T05:25:29;13.50;99.90
15103;DHT22;7652;53.584;9.998;2022-09-24T05:28:32;13.60;99.90
15103;DHT22;7652;53.584;9.998;2022-09-24T05:31:34;13.70;99.90
15103;DHT22;7652;53.584;9.998;2022-09-24T05:34:37;13.70;99.90
15103;DHT22;7652;53.584;9.998;2022-09-24T05:37:43;13.60;99.90
15103;DHT22;7652;53.584;9.998;2022-09-24T05:40:46;13.70;99.90
15103;DHT22;7652;53.584;9.998;2022-09-24T05:43:49;13.70;99.90
15103;DHT22;7652;53.584;9.998;2022-09-24T05:46:52;13.60;99.90
15103;DHT22;7652;53.584;9.998;2022-09-24T05:49:55;13.70;99.90
15103;DHT22;7652;53.584;9.998;2022-09-24T05:53:00;13.70;99.90
15103;DHT22;7652;53.584;9.998;2022-09-24T05:56:03;13.80;99.90
15103;DHT22;7652;53.584;9.998;2022-09-24T05:59:06;13.80;99.90
15103;DHT22;7652;53.584;9.998;2022-09-24T06:02:10;13.80;99.90
15103;DHT22;7652;53.584;9.998;2022-09-24T06:05:13;13.80;99.90
15103;DHT22;7652;53.584;9.998;2022-09-24T06:08:19;13.80;99.90
15103;DHT22;7652;53.584;9.998;2022-09-24T06:11:22;13.80;99.90
15103;DHT22;7652;53.584;9.998;2022-09-24T06:14:26;13.70;99.90
15103;DHT22;7652;53.584;9.998;2022-09-24T06:17:29;13.70;99.90
15103;DHT22;7652;53.584;9.998;2022-09-24T06:20:32;13.70;99.90
15103;DHT22;7652;53.584;9.998;2022-09-24T06:23:37;13.70;99.90
15103;DHT22;7652;53.584;9.998;2022-09-24T06:26:40;13.60;99.90
15103;DHT22;7652;53.584;9.998;2022-09-24T06:29:43;13.60;99.90
15103;DHT22;7652;53.584;9.998;2022-09-24T06:32:46;13.60;99.90
15103;DHT22;7652;53.584;9.998;2022-09-24T06:35:49;13.70;99.90
15103;DHT22;7652;53.584;9.998;2022-09-24T06:38:54;13.70;99.90
15103;DHT22;7652;53.584;9.998;2022-09-24T06:41:59;13.70;99.90
15103;DHT22;7652;53.584;9.998;2022-09-24T06:45:02;13.60;99.90
15103;DHT22;7652;53.584;9.998;2022-09-24T06:48:05;13.60;99.90
15103;DHT22;7652;53.584;9.998;2022-09-24T06:51:08;13.50;99.90
15103;DHT22;7652;53.584;9.998;2022-09-24T06:54:13;13.50;99.90
15103;DHT22;7652;53.584;9.998;2022-09-24T06:57:16;13.50;99.90
15103;DHT22;7652;53.584;9.998;2022-09-24T07:00:19;13.50;99.90
15103;DHT22;7652;53.584;9.998;2022-09-24T07:03:22;13.60;99.90
15103;DHT22;7652;53.584;9.998;2022-09-24T07:06:25;13.60;99.90
15103;DHT22;7652;53.584;9.998;2022-09-24T07:09:49;13.70;99.90
15103;DHT22;7652;53.584;9.998;2022-09-24T07:12:53;13.60;99.90
15103;DHT22;7652;53.584;9.998;2022-09-24T07:15:56;13.60;99.90
15103;DHT22;7652;53.584;9.998;2022-09-24T07:18:59;13.60;99.90
15103;DHT22;7652;53.584;9.998;2022-09-24T07:22:02;13.40;99.90
15103;DHT22;7652;53.584;9.998;2022-09-24T07:25:08;13.30;99.90
15103;DHT22;7652;53.584;9.998;2022-09-24T07:28:13;13.20;99.90
15103;DHT22;7652;53.584;9.998;2022-09-24T07:31:16;13.20;99.90
15103;DHT22;7652;53.584;9.998;2022-09-24T07:34:19;13.10;99.90
15103;DHT22;7652;53.584;9.998;2022-09-24T07:37:23;13.20;99.90
15103;DHT22;7652;53.584;9.998;2022-09-24T07:40:28;13.20;99.90
15103;DHT22;7652;53.584;9.998;2022-09-24T07:43:31;13.20;99.90
15103;DHT22;7652;53.584;9.998;2022-09-24T07:46:34;13.30;99.90
15103;DHT22;7652;53.584;9.998;2022-09-24T07:49:37;13.10;99.90
15103;DHT22;7652;53.584;9.998;2022-09-24T07:52:40;13.00;99.90
15103;DHT22;7652;53.584;9.998;2022-09-24T07:55:44;13.00;99.90
15103;DHT22;7652;53.584;9.998;2022-09-24T07:58:48;13.00;99.90
15103;DHT22;7652;53.584;9.998;2022-09-24T08:01:51;13.00;99.90
15103;DHT22;7652;53.584;9.998;2022-09-24T08:04:54;13.00;99.90
15103;DHT22;7652;53.584;9.998;2022-09-24T08:07:58;13.10;99.90
15103;DHT22;7652;53.584;9.998;2022-09-24T08:11:03;13.10;99.90
15103;DHT22;7652;53.584;9.998;2022-09-24T08:14:06;13.10;99.90
15103;DHT22;7652;53.584;9.998;2022-09-24T08:17:09;13.20;99.90
15103;DHT22;7652;53.584;9.998;2022-09-24T08:20:12;13.20;99.90
15103;DHT22;7652;53.584;9.998;2022-09-24T08:23:15;13.10;99.90
15103;DHT22;7652;53.584;9.998;2022-09-24T08:26:20;13.10;99.90
15103;DHT22;7652;53.584;9.998;2022-09-24T08:29:23;13.10;99.90
15103;DHT22;7652;53.584;9.998;2022-09-24T08:32:26;13.10;99.90
15103;DHT22;7652;53.584;9.998;2022-09-24T08:35:29;13.10;99.90
15103;DHT22;7652;53.584;9.998;2022-09-24T08:38:33;13.20;99.90
15103;DHT22;7652;53.584;9.998;2022-09-24T08:41:49;13.10;99.90
15103;DHT22;7652;53.584;9.998;2022-09-24T08:44:55;13.20;99.90
15103;DHT22;7652;53.584;9.998;2022-09-24T08:48:19;13.20;99.90
15103;DHT22;7652;53.584;9.998;2022-09-24T08:51:25;13.20;99.90
15103;DHT22;7652;53.584;9.998;2022-09-24T08:54:35;13.20;99.90
15103;DHT22;7652;53.584;9.998;2022-09-24T08:57:46;13.20;99.90
15103;DHT22;7652;53.584;9.998;2022-09-24T09:00:55;13.20;99.90
15103;DHT22;7652;53.584;9.998;2022-09-24T09:04:20;13.20;99.90
15103;DHT22;7652;53.584;9.998;2022-09-24T09:07:27;13.20;99.90
15103;DHT22;7652;53.584;9.998;2022-09-24T09:10:35;13.10;99.90
15103;DHT22;7652;53.584;9.998;2022-09-24T09:13:42;13.10;99.90
15103;DHT22;7652;53.584;9.998;2022-09-24T09:16:51;13.20;99.90
15103;DHT22;7652;53.584;9.998;2022-09-24T09:19:56;13.30;99.90
15103;DHT22;7652;53.584;9.998;2022-09-24T09:23:04;13.30;99.90
15103;DHT22;7652;53.584;9.998;2022-09-24T09:26:09;13.30;99.90
15103;DHT22;7652;53.584;9.998;2022-09-24T09:29:15;13.30;99.90
15103;DHT22;7652;53.584;9.998;2022-09-24T09:32:30;13.40;99.90
15103;DHT22;7652;53.584;9.998;2022-09-24T09:35:41;13.40;99.90
15103;DHT22;7652;53.584;9.998;2022-09-24T09:38:53;13.30;99.90
15103;DHT22;7652;53.584;9.998;2022-09-24T09:42:05;13.40;99.90
15103;DHT22;7652;53.584;9.998;2022-09-24T09:45:21;13.40;99.90
15103;DHT22;7652;53.584;9.998;2022-09-24T09:48:40;13.30;99.90
15103;DHT22;7652;53.584;9.998;2022-09-24T09:51:46;13.40;99.90
15103;DHT22;7652;53.584;9.998;2022-09-24T09:54:50;13.30;99.90
15103;DHT22;7652;53.584;9.998;2022-09-24T09:58:08;13.40;99.90
15103;DHT22;7652;53.584;9.998;2022-09-24T10:01:15;13.50;99.90
15103;DHT22;7652;53.584;9.998;2022-09-24T10:04:26;13.50;99.90
15103;DHT22;7652;53.584;9.998;2022-09-24T10:07:31;13.50;99.90
15103;DHT22;7652;53.584;9.998;2022-09-24T10:10:34;13.60;99.90
15103;DHT22;7652;53.584;9.998;2022-09-24T10:13:37;13.50;99.90
15103;DHT22;7652;53.584;9.998;2022-09-24T10:16:43;13.60;99.90
15103;DHT22;7652;53.584;9.998;2022-09-24T10:19:47;13.60;99.90
15103;DHT22;7652;53.584;9.998;2022-09-24T10:22:53;13.70;99.90
15103;DHT22;7652;53.584;9.998;2022-09-24T10:25:59;13.70;99.90
15103;DHT22;7652;53.584;9.998;2022-09-24T10:29:03;13.80;99.90
15103;DHT22;7652;53.584;9.998;2022-09-24T10:32:26;13.80;99.90
15103;DHT22;7652;53.584;9.998;2022-09-24T10:35:32;13.80;99.90
15103;DHT22;7652;53.584;9.998;2022-09-24T10:38:36;13.80;99.90
15103;DHT22;7652;53.584;9.998;2022-09-24T10:41:45;13.80;99.90
15103;DHT22;7652;53.584;9.998;2022-09-24T10:44:49;13.80;99.90
15103;DHT22;7652;53.584;9.998;2022-09-24T10:48:00;13.80;99.90
15103;DHT22;7652;53.584;9.998;2022-09-24T10:51:19;13.90;99.90
15103;DHT22;7652;53.584;9.998;2022-09-24T10:54:41;13.90;99.90
15103;DHT22;7652;53.584;9.998;2022-09-24T10:57:57;13.90;99.90
15103;DHT22;7652;53.584;9.998;2022-09-24T11:01:11;13.90;99.90
15103;DHT22;7652;53.584;9.998;2022-09-24T11:04:32;13.90;99.90
15103;DHT22;7652;53.584;9.998;2022-09-24T11:07:55;13.90;99.90
15103;DHT22;7652;53.584;9.998;2022-09-24T11:11:09;13.90;99.90
15103;DHT22;7652;53.584;9.998;2022-09-24T11:14:26;13.90;99.90
15103;DHT22;7652;53.584;9.998;2022-09-24T11:17:36;14.00;99.90
15103;DHT22;7652;53.584;9.998;2022-09-24T11:20:44;14.00;99.90
15103;DHT22;7652;53.584;9.998;2022-09-24T11:24:01;14.00;99.90
15103;DHT22;7652;53.584;9.998;2022-09-24T11:27:26;14.10;99.90
15103;DHT22;7652;53.584;9.998;2022-09-24T11:30:42;14.10;99.90
15103;DHT22;7652;53.584;9.998;2022-09-24T11:34:02;14.10;99.90
15103;DHT22;7652;53.584;9.998;2022-09-24T11:37:23;14.10;99.90
15103;DHT22;7652;53.584;9.998;2022-09-24T11:40:47;14.00;99.90
15103;DHT22;7652;53.584;9.998;2022-09-24T11:44:08;14.10;99.90
15103;DHT22;7652;53.584;9.998;2022-09-24T11:47:21;14.10;99.90
15103;DHT22;7652;53.584;9.998;2022-09-24T11:50:36;14.00;99.90
15103;DHT22;7652;53.584;9.998;2022-09-24T11:53:55;14.10;99.90
15103;DHT22;7652;53.584;9.998;2022-09-24T11:57:01;14.20;99.90
15103;DHT22;7652;53.584;9.998;2022-09-24T12:00:12;14.20;99.90
15103;DHT22;7652;53.584;9.998;2022-09-24T12:03:19;14.00;99.90
15103;DHT22;7652;53.584;9.998;2022-09-24T12:06:31;14.10;99.90
15103;DHT22;7652;53.584;9.998;2022-09-24T12:09:40;14.20;99.90
15103;DHT22;7652;53.584;9.998;2022-09-24T12:12:47;14.20;99.90
15103;DHT22;7652;53.584;9.998;2022-09-24T12:15:54;14.20;99.90
15103;DHT22;7652;53.584;9.998;2022-09-24T12:19:02;14.20;99.90
15103;DHT22;7652;53.584;9.998;2022-09-24T12:22:08;14.30;99.90
15103;DHT22;7652;53.584;9.998;2022-09-24T12:25:14;14.30;99.90
15103;DHT22;7652;53.584;9.998;2022-09-24T12:28:18;14.30;99.90
15103;DHT22;7652;53.584;9.998;2022-09-24T12:31:43;14.40;99.90
15103;DHT22;7652;53.584;9.998;2022-09-24T12:35:13;14.40;99.90
15103;DHT22;7652;53.584;9.998;2022-09-24T12:38:20;14.50;99.90
15103;DHT22;7652;53.584;9.998;2022-09-24T12:41:29;14.60;99.90
15103;DHT22;7652;53.584;9.998;2022-09-24T12:44:40;14.50;99.90
15103;DHT22;7652;53.584;9.998;2022-09-24T12:47:46;14.50;99.90
15103;DHT22;7652;53.584;9.998;2022-09-24T12:50:56;14.50;99.90
15103;DHT22;7652;53.584;9.998;2022-09-24T12:54:05;14.50;99.90
15103;DHT22;7652;53.584;9.998;2022-09-24T12:57:12;14.40;99.90
15103;DHT22;7652;53.584;9.998;2022-09-24T13:00:37;14.40;99.90
15103;DHT22;7652;53.584;9.998;2022-09-24T13:03:42;14.60;99.90
15103;DHT22;7652;53.584;9.998;2022-09-24T13:06:48;14.50;99.90
15103;DHT22;7652;53.584;9.998;2022-09-24T13:09:51;14.50;99.90
15103;DHT22;7652;53.584;9.998;2022-09-24T13:12:57;14.60;99.90
15103;DHT22;7652;53.584;9.998;2022-09-24T13:16:02;14.60;99.90
15103;DHT22;7652;53.584;9.998;2022-09-24T13:19:23;14.60;99.90
15103;DHT22;7652;53.584;9.998;2022-09-24T13:22:33;14.60;99.90
15103;DHT22;7652;53.584;9.998;2022-09-24T13:25:37;14.50;99.90
15103;DHT22;7652;53.584;9.998;2022-09-24T13:28:51;14.60;99.90
15103;DHT22;7652;53.584;9.998;2022-09-24T13:32:01;14.70;99.90
15103;DHT22;7652;53.584;9.998;2022-09-24T13:35:09;14.70;99.90
15103;DHT22;7652;53.584;9.998;2022-09-24T13:38:17;14.70;99.90
15103;DHT22;7652;53.584;9.998;2022-09-24T13:41:28;14.80;99.90
15103;DHT22;7652;53.584;9.998;2022-09-24T13:44:35;14.90;99.90
15103;DHT22;7652;53.584;9.998;2022-09-24T13:47:42;14.90;99.90
15103;DHT22;7652;53.584;9.998;2022-09-24T13:50:49;15.00;99.90
15103;DHT22;7652;53.584;9.998;2022-09-24T13:53:57;15.00;99.90
15103;DHT22;7652;53.584;9.998;2022-09-24T13:57:10;14.90;99.90
15103;DHT22;7652;53.584;9.998;2022-09-24T14:00:17;15.00;99.90
15103;DHT22;7652;53.584;9.998;2022-09-24T14:03:24;14.90;99.90
15103;DHT22;7652;53.584;9.998;2022-09-24T14:06:32;14.90;99.90
15103;DHT22;7652;53.584;9.998;2022-09-24T14:09:36;14.80;99.90
15103;DHT22;7652;53.584;9.998;2022-09-24T14:12:39;14.90;99.90
15103;DHT22;7652;53.584;9.998;2022-09-24T14:15:55;14.80;99.90
15103;DHT22;7652;53.584;9.998;2022-09-24T14:19:03;14.70;99.90
15103;DHT22;7652;53.584;9.998;2022-09-24T14:22:10;14.70;99.90
15103;DHT22;7652;53.584;9.998;2022-09-24T14:25:16;14.80;99.90
15103;DHT22;7652;53.584;9.998;2022-09-24T14:28:21;14.90;99.90
15103;DHT22;7652;53.584;9.998;2022-09-24T14:31:26;14.80;99.90
15103;DHT22;7652;53.584;9.998;2022-09-24T14:34:34;14.80;99.90
15103;DHT22;7652;53.584;9.998;2022-09-24T14:37:39;14.90;99.90
15103;DHT22;7652;53.584;9.998;2022-09-24T14:40:49;15.00;99.90
15103;DHT22;7652;53.584;9.998;2022-09-24T14:43:56;15.00;99.90
15103;DHT22;7652;53.584;9.998;2022-09-24T14:47:01;15.00;99.90
15103;DHT22;7652;53.584;9.998;2022-09-24T14:50:26;15.10;99.90
15103;DHT22;7652;53.584;9.998;2022-09-24T14:53:31;15.20;99.90
15103;DHT22;7652;53.584;9.998;2022-09-24T14:56:35;15.10;99.90
15103;DHT22;7652;53.584;9.998;2022-09-24T14:59:38;15.10;99.90
15103;DHT22;7652;53.584;9.998;2022-09-24T15:02:48;15.00;99.90
15103;DHT22;7652;53.584;9.998;2022-09-24T15:06:01;15.00;99.90
15103;DHT22;7652;53.584;9.998;2022-09-24T15:09:14;15.00;99.90
15103;DHT22;7652;53.584;9.998;2022-09-24T15:12:24;14.90;99.90
15103;DHT22;7652;53.584;9.998;2022-09-24T15:15:31;14.80;99.90
15103;DHT22;7652;53.584;9.998;2022-09-24T15:18:36;14.80;99.90
15103;DHT22;7652;53.584;9.998;2022-09-24T15:21:39;14.80;99.90
15103;DHT22;7652;53.584;9.998;2022-09-24T15:24:42;14.80;99.90
15103;DHT22;7652;53.584;9.998;2022-09-24T15:27:45;14.90;99.90
15103;DHT22;7652;53.584;9.998;2022-09-24T15:30:50;14.90;99.90
15103;DHT22;7652;53.584;9.998;2022-09-24T15:33:54;15.00;99.90
15103;DHT22;7652;53.584;9.998;2022-09-24T15:36:58;15.00;99.90
15103;DHT22;7652;53.584;9.998;2022-09-24T15:40:06;14.90;99.90
15103;DHT22;7652;53.584;9.998;2022-09-24T15:43:17;14.90;99.90
15103;DHT22;7652;53.584;9.998;2022-09-24T15:46:20;14.90;99.90
15103;DHT22;7652;53.584;9.998;2022-09-24T15:49:25;15.00;99.90
15103;DHT22;7652;53.584;9.998;2022-09-24T15:52:31;15.00;99.90
15103;DHT22;7652;53.584;9.998;2022-09-24T15:55:35;15.00;99.90
15103;DHT22;7652;53.584;9.998;2022-09-24T15:58:38;15.00;99.90
15103;DHT22;7652;53.584;9.998;2022-09-24T16:01:41;15.00;99.90
15103;DHT22;7652;53.584;9.998;2022-09-24T16:04:46;15.00;99.90
15103;DHT22;7652;53.584;9.998;2022-09-24T16:07:49;15.00;99.90
15103;DHT22;7652;53.584;9.998;2022-09-24T16:10:52;14.90;99.90
15103;DHT22;7652;53.584;9.998;2022-09-24T16:13:55;14.90;99.90
15103;DHT22;7652;53.584;9.998;2022-09-24T16:16:58;14.90;99.90
15103;DHT22;7652;53.584;9.998;2022-09-24T16:20:03;14.80;99.90
15103;DHT22;7652;53.584;9.998;2022-09-24T16:23:11;14.80;99.90
15103;DHT22;7652;53.584;9.998;2022-09-24T16:26:15;14.70;99.90
15103;DHT22;7652;53.584;9.998;2022-09-24T16:29:18;14.80;99.90
15103;DHT22;7652;53.584;9.998;2022-09-24T16:32:21;14.70;99.90
15103;DHT22;7652;53.584;9.998;2022-09-24T16:35:26;14.80;99.90
15103;DHT22;7652;53.584;9.998;2022-09-24T16:38:29;14.80;99.90
15103;DHT22;7652;53.584;9.998;2022-09-24T16:41:35;14.80;99.90
15103;DHT22;7652;53.584;9.998;2022-09-24T16:44:38;14.80;99.90
15103;DHT22;7652;53.584;9.998;2022-09-24T16:47:41;14.80;99.90
15103;DHT22;7652;53.584;9.998;2022-09-24T16:50:45;14.80;99.90
15103;DHT22;7652;53.584;9.998;2022-09-24T16:53:53;14.70;99.90
15103;DHT22;7652;53.584;9.998;2022-09-24T16:56:56;14.70;99.90
15103;DHT22;7652;53.584;9.998;2022-09-24T17:00:00;14.70;99.90
15103;DHT22;7652;53.584;9.998;2022-09-24T17:03:04;14.70;99.90
15103;DHT22;7652;53.584;9.998;2022-09-24T17:06:16;14.80;99.90
15103;DHT22;7652;53.584;9.998;2022-09-24T17:09:20;14.70;99.90
15103;DHT22;7652;53.584;9.998;2022-09-24T17:12:42;14.70;99.90
15103;DHT22;7652;53.584;9.998;2022-09-24T17:15:45;14.60;99.90
15103;DHT22;7652;53.584;9.998;2022-09-24T17:18:48;14.60;99.90
15103;DHT22;7652;53.584;9.998;2022-09-24T17:21:53;14.50;99.90
15103;DHT22;7652;53.584;9.998;2022-09-24T17:24:56;14.60;99.90
15103;DHT22;7652;53.584;9.998;2022-09-24T17:27:59;14.50;99.90
15103;DHT22;7652;53.584;9.998;2022-09-24T17:31:03;14.50;99.90
15103;DHT22;7652;53.584;9.998;2022-09-24T17:34:08;14.30;99.90
15103;DHT22;7652;53.584;9.998;2022-09-24T17:37:14;14.40;99.90
15103;DHT22;7652;53.584;9.998;2022-09-24T17:40:19;14.30;99.90
15103;DHT22;7652;53.584;9.998;2022-09-24T17:43:26;14.20;99.90
15103;DHT22;7652;53.584;9.998;2022-09-24T17:46:30;14.20;99.90
15103;DHT22;7652;53.584;9.998;2022-09-24T17:49:33;14.30;99.90
15103;DHT22;7652;53.584;9.998;2022-09-24T17:52:38;14.20;99.90
15103;DHT22;7652;53.584;9.998;2022-09-24T17:55:46;14.20;99.90
15103;DHT22;7652;53.584;9.998;2022-09-24T17:58:50;14.20;99.90
15103;DHT22;7652;53.584;9.998;2022-09-24T18:01:53;14.20;99.90
15103;DHT22;7652;53.584;9.998;2022-09-24T18:04:57;14.20;99.90
15103;DHT22;7652;53.584;9.998;2022-09-24T18:08:01;14.20;99.90
15103;DHT22;7652;53.584;9.998;2022-09-24T18:11:06;14.20;99.90
15103;DHT22;7652;53.584;9.998;2022-09-24T18:14:12;14.30;99.90
15103;DHT22;7652;53.584;9.998;2022-09-24T18:17:16;14.20;99.90
15103;DHT22;7652;53.584;9.998;2022-09-24T18:20:19;14.20;99.90
15103;DHT22;7652;53.584;9.998;2022-09-24T18:23:23;14.30;99.90
15103;DHT22;7652;53.584;9.998;2022-09-24T18:26:28;14.30;99.90
15103;DHT22;7652;53.584;9.998;2022-09-24T18:29:33;14.20;99.90
15103;DHT22;7652;53.584;9.998;2022-09-24T18:32:38;14.30;99.90
15103;DHT22;7652;53.584;9.998;2022-09-24T18:35:41;14.20;99.90
15103;DHT22;7652;53.584;9.998;2022-09-24T18:38:49;14.20;99.90
15103;DHT22;7652;53.584;9.998;2022-09-24T18:41:53;14.30;99.90
15103;DHT22;7652;53.584;9.998;2022-09-24T18:44:56;14.30;99.90
15103;DHT22;7652;53.584;9.998;2022-09-24T18:47:59;14.30;99.90
15103;DHT22;7652;53.584;9.998;2022-09-24T18:51:02;14.30;99.90
15103;DHT22;7652;53.584;9.998;2022-09-24T18:54:10;14.30;99.90
15103;DHT22;7652;53.584;9.998;2022-09-24T18:57:14;14.30;99.90
15103;DHT22;7652;53.584;9.998;2022-09-24T19:00:17;14.30;99.90
15103;DHT22;7652;53.584;9.998;2022-09-24T19:03:46;14.30;99.90
15103;DHT22;7652;53.584;9.998;2022-09-24T19:06:49;14.30;99.90
15103;DHT22;7652;53.584;9.998;2022-09-24T19:09:53;14.40;99.90
15103;DHT22;7652;53.584;9.998;2022-09-24T19:12:56;14.40;99.90
15103;DHT22;7652;53.584;9.998;2022-09-24T19:16:02;14.40;99.90
15103;DHT22;7652;53.584;9.998;2022-09-24T19:19:06;14.40;99.90
15103;DHT22;7652;53.584;9.998;2022-09-24T19:22:09;14.40;99.90
15103;DHT22;7652;53.584;9.998;2022-09-24T19:25:14;14.30;99.90
15103;DHT22;7652;53.584;9.998;2022-09-24T19:28:17;14.30;99.90
15103;DHT22;7652;53.584;9.998;2022-09-24T19:31:22;14.20;99.90
15103;DHT22;7652;53.584;9.998;2022-09-24T19:34:25;14.20;99.90
15103;DHT22;7652;53.584;9.998;2022-09-24T19:37:29;14.20;99.90
15103;DHT22;7652;53.584;9.998;2022-09-24T19:40:34;14.30;99.90
15103;DHT22;7652;53.584;9.998;2022-09-24T19:43:37;14.20;99.90
15103;DHT22;7652;53.584;9.998;2022-09-24T19:46:40;14.20;99.90
15103;DHT22;7652;53.584;9.998;2022-09-24T19:49:44;14.30;99.90
15103;DHT22;7652;53.584;9.998;2022-09-24T19:52:47;14.30;99.90
15103;DHT22;7652;53.584;9.998;2022-09-24T19:55:52;14.40;99.90
15103;DHT22;7652;53.584;9.998;2022-09-24T19:58:56;14.30;99.90